PWSweather.com
Personal Weather Stations
Station Observations
PENICUIKWS
PenicuikGB

PenicuikGB

Lat: 55.830932, Lon: -3.224533000000065

Elevation: 166

Station Type: Fine Offset

http://weather.penicuik.org

High Low Average
Temperature 63.9°F17.7°F 49.5°F9.7°F 53.7°F12.1°F
Dew Point 60.4°F15.8°F 44.6°F7.0°F 49.9°F9.9°F
Winds 6.2 mph S10.0 mph S Calm Calm 1.1 mph 1.8 mph
Wind Gusts 10.7 mph17.2 mph -- 2.3 mph3.7 mph
Humidity 96% 71% 87%
Pressure 29.59 in1002.00 in 29.40 in995.60 in -
Precipitation 0.16 in4.10 in - -
Hour Temp Dew Point Humidity Winds Wind Gusts Pressure Precip Precip Rate Daily Precip Total
12:00 AM 52.2°F11.2°C 50.5°F10.3°C 94% 0.1 mph NW0.2 kmh NW 0.7 mph1.1 kmh 29.40 in995.6 mb 0.00 in0.0 mm 0.00 in0.0 mm 0.00 in0.0 mm
12:15 AM 52.0°F11.1°C 50.3°F10.2°C 94% Calm Calm -- 29.41 in995.9 mb 0.00 in0.0 mm 0.00 in0.0 mm 0.00 in0.0 mm
12:30 AM 52.0°F11.1°C 50.3°F10.2°C 94% Calm Calm -- 29.40 in995.6 mb 0.00 in0.0 mm 0.00 in0.0 mm 0.00 in0.0 mm
12:45 AM 52.0°F11.1°C 50.3°F10.2°C 94% Calm Calm -- 29.41 in995.9 mb 0.00 in0.0 mm 0.00 in0.0 mm 0.00 in0.0 mm
01:00 AM 52.0°F11.1°C 50.3°F10.2°C 94% Calm Calm -- 29.41 in995.9 mb 0.00 in0.0 mm 0.00 in0.0 mm 0.00 in0.0 mm
01:15 AM 52.0°F11.1°C 50.3°F10.2°C 94% Calm Calm -- 29.41 in995.9 mb 0.00 in0.0 mm 0.00 in0.0 mm 0.00 in0.0 mm
01:30 AM 52.0°F11.1°C 50.3°F10.2°C 94% Calm Calm -- 29.41 in995.9 mb 0.00 in0.0 mm 0.00 in0.0 mm 0.00 in0.0 mm
01:45 AM 52.0°F11.1°C 50.3°F10.2°C 94% Calm Calm -- 29.42 in996.3 mb 0.00 in0.0 mm 0.00 in0.0 mm 0.00 in0.0 mm
02:00 AM 52.0°F11.1°C 50.3°F10.2°C 94% Calm Calm -- 29.43 in996.6 mb 0.00 in0.0 mm 0.00 in0.0 mm 0.00 in0.0 mm
02:15 AM 52.0°F11.1°C 50.3°F10.2°C 94% Calm Calm -- 29.42 in996.3 mb 0.01 in0.3 mm 0.04 in1.0 mm 0.01 in0.3 mm
02:30 AM 52.0°F11.1°C 50.3°F10.2°C 94% Calm Calm -- 29.43 in996.6 mb 0.01 in0.3 mm 0.00 in0.0 mm 0.01 in0.3 mm
02:45 AM 52.0°F11.1°C 50.3°F10.2°C 94% 0.1 mph W0.2 kmh W 1.6 mph2.6 kmh 29.43 in996.6 mb 0.02 in0.5 mm 0.04 in1.0 mm 0.02 in0.5 mm
03:00 AM 52.0°F11.1°C 50.3°F10.2°C 94% Calm Calm -- 29.42 in996.3 mb 0.02 in0.5 mm 0.00 in0.0 mm 0.02 in0.5 mm
03:15 AM 52.0°F11.1°C 50.3°F10.2°C 94% Calm Calm -- 29.42 in996.3 mb 0.01 in0.3 mm 0.00 in0.0 mm 0.02 in0.5 mm
03:30 AM 52.0°F11.1°C 50.6°F10.3°C 95% 0.1 mph NW0.2 kmh NW 0.7 mph1.1 kmh 29.42 in996.3 mb 0.01 in0.3 mm 0.00 in0.0 mm 0.02 in0.5 mm
03:45 AM 52.0°F11.1°C 50.6°F10.3°C 95% Calm Calm -- 29.41 in995.9 mb 0.00 in0.0 mm 0.00 in0.0 mm 0.02 in0.5 mm
04:00 AM 51.6°F10.9°C 50.2°F10.1°C 95% Calm Calm -- 29.41 in995.9 mb 0.01 in0.3 mm 0.01 in0.3 mm 0.04 in1.0 mm
04:15 AM 51.4°F10.8°C 50.1°F10.1°C 95% Calm Calm -- 29.42 in996.3 mb 0.01 in0.3 mm 0.00 in0.0 mm 0.04 in1.0 mm
04:30 AM 51.3°F10.7°C 49.9°F9.9°C 95% Calm Calm -- 29.42 in996.3 mb 0.01 in0.3 mm 0.00 in0.0 mm 0.04 in1.0 mm
04:45 AM 51.3°F10.7°C 49.9°F9.9°C 95% Calm Calm -- 29.44 in997.0 mb 0.01 in0.3 mm 0.00 in0.0 mm 0.04 in1.0 mm
05:00 AM 51.1°F10.6°C 49.7°F9.8°C 95% Calm Calm -- 29.45 in997.3 mb 0.00 in0.0 mm 0.00 in0.0 mm 0.04 in1.0 mm
05:15 AM 51.3°F10.7°C 49.9°F9.9°C 95% Calm Calm 0.7 mph1.1 kmh 29.45 in997.3 mb 0.00 in0.0 mm 0.00 in0.0 mm 0.04 in1.0 mm
05:30 AM 51.3°F10.7°C 50.2°F10.1°C 96% Calm Calm -- 29.46 in997.6 mb 0.00 in0.0 mm 0.00 in0.0 mm 0.04 in1.0 mm
05:45 AM 51.3°F10.7°C 50.2°F10.1°C 96% Calm Calm -- 29.46 in997.6 mb 0.00 in0.0 mm 0.00 in0.0 mm 0.04 in1.0 mm
06:00 AM 51.4°F10.8°C 50.3°F10.2°C 96% Calm Calm -- 29.46 in997.6 mb 0.00 in0.0 mm 0.00 in0.0 mm 0.04 in1.0 mm
06:15 AM 51.6°F10.9°C 50.5°F10.3°C 96% 0.1 mph NW0.2 kmh NW 0.7 mph1.1 kmh 29.46 in997.6 mb 0.00 in0.0 mm 0.00 in0.0 mm 0.04 in1.0 mm
06:30 AM 51.6°F10.9°C 50.5°F10.3°C 96% Calm Calm -- 29.46 in997.6 mb 0.00 in0.0 mm 0.00 in0.0 mm 0.04 in1.0 mm
06:45 AM 51.6°F10.9°C 50.5°F10.3°C 96% Calm Calm -- 29.48 in998.3 mb 0.00 in0.0 mm 0.00 in0.0 mm 0.04 in1.0 mm
07:00 AM 51.8°F11.0°C 50.4°F10.2°C 95% 0.1 mph W0.2 kmh W 0.7 mph1.1 kmh 29.49 in998.6 mb 0.00 in0.0 mm 0.00 in0.0 mm 0.04 in1.0 mm
07:15 AM 52.0°F11.1°C 50.6°F10.3°C 95% Calm Calm -- 29.50 in999.0 mb 0.00 in0.0 mm 0.00 in0.0 mm 0.04 in1.0 mm
07:30 AM 52.0°F11.1°C 50.6°F10.3°C 95% Calm Calm -- 29.51 in999.3 mb 0.00 in0.0 mm 0.00 in0.0 mm 0.04 in1.0 mm
08:00 AM 52.3°F11.3°C 51.0°F10.6°C 95% Calm Calm -- 29.51 in999.3 mb 0.00 in0.0 mm 0.00 in0.0 mm 0.04 in1.0 mm
08:15 AM 52.7°F11.5°C 51.3°F10.7°C 95% 0.6 mph SSE1.0 kmh SSE 2.2 mph3.5 kmh 29.52 in999.7 mb 0.00 in0.0 mm 0.00 in0.0 mm 0.04 in1.0 mm
08:30 AM 53.4°F11.9°C 52.0°F11.1°C 95% 0.3 mph WNW0.5 kmh WNW 1.6 mph2.6 kmh 29.53 in1000.0 mb 0.00 in0.0 mm 0.00 in0.0 mm 0.04 in1.0 mm
08:45 AM 55.4°F13.0°C 54.0°F12.2°C 95% 0.9 mph WNW1.4 kmh WNW 3.1 mph5.0 kmh 29.54 in1000.3 mb 0.00 in0.0 mm 0.00 in0.0 mm 0.04 in1.0 mm
09:00 AM 56.8°F13.8°C 55.4°F13.0°C 95% 1.2 mph S1.9 kmh S 2.2 mph3.5 kmh 29.54 in1000.3 mb 0.00 in0.0 mm 0.00 in0.0 mm 0.04 in1.0 mm
09:15 AM 57.0°F13.9°C 55.6°F13.1°C 95% 1.5 mph WNW2.4 kmh WNW 2.2 mph3.5 kmh 29.53 in1000.0 mb 0.00 in0.0 mm 0.00 in0.0 mm 0.04 in1.0 mm
09:30 AM 56.1°F13.4°C 54.4°F12.4°C 94% 0.5 mph W0.8 kmh W 2.2 mph3.5 kmh 29.54 in1000.3 mb 0.00 in0.0 mm 0.00 in0.0 mm 0.04 in1.0 mm
09:45 AM 58.3°F14.6°C 56.6°F13.7°C 94% 1.2 mph SW1.9 kmh SW 3.1 mph5.0 kmh 29.55 in1000.7 mb 0.00 in0.0 mm 0.00 in0.0 mm 0.04 in1.0 mm
10:00 AM 63.7°F17.6°C 60.4°F15.8°C 89% 1.4 mph S2.3 kmh S 3.1 mph5.0 kmh 29.55 in1000.7 mb 0.00 in0.0 mm 0.00 in0.0 mm 0.04 in1.0 mm
10:15 AM 63.9°F17.7°C 54.3°F12.4°C 71% 2.8 mph SSW4.5 kmh SSW 4.5 mph7.2 kmh 29.55 in1000.7 mb 0.00 in0.0 mm 0.00 in0.0 mm 0.04 in1.0 mm
10:30 AM 61.5°F16.4°C 52.4°F11.3°C 72% 1.7 mph S2.7 kmh S 3.1 mph5.0 kmh 29.56 in1001.0 mb 0.00 in0.0 mm 0.00 in0.0 mm 0.04 in1.0 mm
10:45 AM 59.7°F15.4°C 52.2°F11.2°C 76% 1.6 mph S2.6 kmh S 3.1 mph5.0 kmh 29.56 in1001.0 mb 0.00 in0.0 mm 0.00 in0.0 mm 0.04 in1.0 mm
11:00 AM 58.6°F14.8°C 52.2°F11.2°C 79% 2.2 mph SSW3.5 kmh SSW 3.8 mph6.1 kmh 29.57 in1001.4 mb 0.00 in0.0 mm 0.00 in0.0 mm 0.04 in1.0 mm
11:15 AM 57.7°F14.3°C 52.0°F11.1°C 81% 1.7 mph NW2.7 kmh NW 3.1 mph5.0 kmh 29.57 in1001.4 mb 0.00 in0.0 mm 0.00 in0.0 mm 0.04 in1.0 mm
11:30 AM 57.7°F14.3°C 52.3°F11.3°C 82% 1.4 mph NE2.3 kmh NE 2.2 mph3.5 kmh 29.57 in1001.4 mb 0.00 in0.0 mm 0.00 in0.0 mm 0.04 in1.0 mm
11:45 AM 59.5°F15.3°C 53.7°F12.1°C 81% 0.7 mph S1.1 kmh S 2.2 mph3.5 kmh 29.56 in1001.0 mb 0.00 in0.0 mm 0.00 in0.0 mm 0.04 in1.0 mm
12:00 PM 59.5°F15.3°C 53.0°F11.7°C 79% 0.8 mph S1.3 kmh S 1.6 mph2.6 kmh 29.57 in1001.4 mb 0.00 in0.0 mm 0.00 in0.0 mm 0.04 in1.0 mm
12:15 PM 60.3°F15.7°C 53.0°F11.7°C 77% 1.6 mph S2.6 kmh S 5.4 mph8.7 kmh 29.57 in1001.4 mb 0.00 in0.0 mm 0.00 in0.0 mm 0.04 in1.0 mm
12:30 PM 59.7°F15.4°C 51.1°F10.6°C 73% 3.4 mph SE5.5 kmh SE 5.4 mph8.7 kmh 29.57 in1001.4 mb 0.00 in0.0 mm 0.00 in0.0 mm 0.04 in1.0 mm
12:45 PM 59.0°F15.0°C 51.5°F10.8°C 76% 1.8 mph WNW2.9 kmh WNW 3.8 mph6.1 kmh 29.57 in1001.4 mb 0.00 in0.0 mm 0.00 in0.0 mm 0.04 in1.0 mm
01:00 PM 58.5°F14.7°C 51.3°F10.7°C 77% 3.0 mph SW4.8 kmh SW 4.5 mph7.2 kmh 29.58 in1001.7 mb 0.00 in0.0 mm 0.00 in0.0 mm 0.04 in1.0 mm
01:15 PM 58.5°F14.7°C 51.3°F10.7°C 77% 2.5 mph S4.0 kmh S 6.9 mph11.1 kmh 29.59 in1002.0 mb 0.00 in0.0 mm 0.00 in0.0 mm 0.04 in1.0 mm
01:30 PM 58.5°F14.7°C 51.3°F10.7°C 77% 2.0 mph WSW3.2 kmh WSW 3.8 mph6.1 kmh 29.59 in1002.0 mb 0.00 in0.0 mm 0.00 in0.0 mm 0.04 in1.0 mm
01:45 PM 57.9°F14.4°C 50.4°F10.2°C 76% 3.3 mph N5.3 kmh N 5.4 mph8.7 kmh 29.58 in1001.7 mb 0.00 in0.0 mm 0.00 in0.0 mm 0.04 in1.0 mm
02:15 PM 57.2°F14.0°C 49.7°F9.8°C 76% 1.5 mph S2.4 kmh S 3.1 mph5.0 kmh 29.59 in1002.0 mb 0.00 in0.0 mm 0.00 in0.0 mm 0.04 in1.0 mm
02:30 PM 57.2°F14.0°C 49.7°F9.8°C 76% 2.1 mph WNW3.4 kmh WNW 3.8 mph6.1 kmh 29.58 in1001.7 mb 0.00 in0.0 mm 0.00 in0.0 mm 0.04 in1.0 mm
03:00 PM 55.9°F13.3°C 49.9°F9.9°C 80% 0.1 mph SE0.2 kmh SE 1.6 mph2.6 kmh 29.57 in1001.4 mb 0.00 in0.0 mm 0.00 in0.0 mm 0.04 in1.0 mm
03:15 PM 55.4°F13.0°C 50.0°F10.0°C 82% 0.1 mph SW0.2 kmh SW 0.7 mph1.1 kmh 29.57 in1001.4 mb 0.00 in0.0 mm 0.00 in0.0 mm 0.04 in1.0 mm
03:30 PM 55.4°F13.0°C 50.3°F10.2°C 83% 0.1 mph S0.2 kmh S 0.7 mph1.1 kmh 29.57 in1001.4 mb 0.00 in0.0 mm 0.00 in0.0 mm 0.04 in1.0 mm
03:45 PM 55.0°F12.8°C 50.0°F10.0°C 83% Calm Calm -- 29.57 in1001.4 mb 0.00 in0.0 mm 0.00 in0.0 mm 0.04 in1.0 mm
04:00 PM 54.9°F12.7°C 50.1°F10.1°C 84% Calm Calm -- 29.57 in1001.4 mb 0.00 in0.0 mm 0.00 in0.0 mm 0.04 in1.0 mm
04:15 PM 53.6°F12.0°C 49.5°F9.7°C 86% Calm Calm -- 29.58 in1001.7 mb 0.00 in0.0 mm 0.00 in0.0 mm 0.04 in1.0 mm
04:30 PM 53.6°F12.0°C 49.5°F9.7°C 86% Calm Calm -- 29.57 in1001.4 mb 0.00 in0.0 mm 0.00 in0.0 mm 0.04 in1.0 mm
04:45 PM 53.6°F12.0°C 49.8°F9.9°C 87% 0.2 mph W0.3 kmh W 0.7 mph1.1 kmh 29.57 in1001.4 mb 0.00 in0.0 mm 0.00 in0.0 mm 0.04 in1.0 mm
05:00 PM 53.6°F12.0°C 50.1°F10.1°C 88% 1.0 mph NW1.6 kmh NW 3.8 mph6.1 kmh 29.58 in1001.7 mb 0.00 in0.0 mm 0.00 in0.0 mm 0.04 in1.0 mm
05:15 PM 54.7°F12.6°C 51.5°F10.8°C 89% 3.1 mph WSW5.0 kmh WSW 6.0 mph9.7 kmh 29.59 in1002.0 mb 0.00 in0.0 mm 0.00 in0.0 mm 0.04 in1.0 mm
05:30 PM 54.7°F12.6°C 50.6°F10.3°C 86% 3.6 mph SE5.8 kmh SE 9.2 mph14.8 kmh 29.58 in1001.7 mb 0.00 in0.0 mm 0.00 in0.0 mm 0.04 in1.0 mm
05:45 PM 53.6°F12.0°C 48.6°F9.2°C 83% 2.8 mph NW4.5 kmh NW 6.0 mph9.7 kmh 29.59 in1002.0 mb 0.00 in0.0 mm 0.00 in0.0 mm 0.04 in1.0 mm
06:00 PM 53.2°F11.8°C 47.9°F8.8°C 82% 2.8 mph NW4.5 kmh NW 4.5 mph7.2 kmh 29.59 in1002.0 mb 0.00 in0.0 mm 0.00 in0.0 mm 0.04 in1.0 mm
06:15 PM 52.3°F11.3°C 46.7°F8.2°C 81% 1.3 mph WNW2.1 kmh WNW 3.1 mph5.0 kmh 29.58 in1001.7 mb 0.00 in0.0 mm 0.00 in0.0 mm 0.04 in1.0 mm
06:30 PM 51.4°F10.8°C 46.5°F8.1°C 83% 0.7 mph NW1.1 kmh NW 1.6 mph2.6 kmh 29.57 in1001.4 mb 0.00 in0.0 mm 0.00 in0.0 mm 0.04 in1.0 mm
06:45 PM 50.7°F10.4°C 46.4°F8.0°C 85% 1.3 mph N2.1 kmh N 3.1 mph5.0 kmh 29.57 in1001.4 mb 0.00 in0.0 mm 0.00 in0.0 mm 0.04 in1.0 mm
07:00 PM 51.1°F10.6°C 46.7°F8.2°C 85% 5.2 mph SW8.4 kmh SW 9.8 mph15.8 kmh 29.56 in1001.0 mb 0.00 in0.0 mm 0.00 in0.0 mm 0.04 in1.0 mm
07:15 PM 50.7°F10.4°C 46.1°F7.8°C 84% 1.0 mph NW1.6 kmh NW 1.6 mph2.6 kmh 29.56 in1001.0 mb 0.00 in0.0 mm 0.00 in0.0 mm 0.04 in1.0 mm
07:45 PM 50.9°F10.5°C 45.6°F7.6°C 82% 6.2 mph S10.0 kmh S 10.7 mph17.2 kmh 29.55 in1000.7 mb 0.00 in0.0 mm 0.00 in0.0 mm 0.04 in1.0 mm
08:00 PM 50.5°F10.3°C 44.9°F7.2°C 81% 3.5 mph SW5.6 kmh SW 6.9 mph11.1 kmh 29.55 in1000.7 mb 0.00 in0.0 mm 0.00 in0.0 mm 0.04 in1.0 mm
08:15 PM 50.0°F10.0°C 45.0°F7.2°C 83% 1.1 mph NW1.8 kmh NW 2.2 mph3.5 kmh 29.54 in1000.3 mb 0.00 in0.0 mm 0.00 in0.0 mm 0.04 in1.0 mm
08:30 PM 50.0°F10.0°C 45.4°F7.4°C 84% 1.4 mph WSW2.3 kmh WSW 3.1 mph5.0 kmh 29.54 in1000.3 mb 0.00 in0.0 mm 0.00 in0.0 mm 0.04 in1.0 mm
08:45 PM 49.8°F9.9°C 45.5°F7.5°C 85% 1.1 mph NNW1.8 kmh NNW 2.2 mph3.5 kmh 29.53 in1000.0 mb 0.00 in0.0 mm 0.00 in0.0 mm 0.04 in1.0 mm
09:00 PM 50.4°F10.2°C 45.7°F7.6°C 84% 2.1 mph ENE3.4 kmh ENE 3.1 mph5.0 kmh 29.52 in999.7 mb 0.00 in0.0 mm 0.00 in0.0 mm 0.04 in1.0 mm
09:15 PM 50.4°F10.2°C 45.7°F7.6°C 84% 1.2 mph NNE1.9 kmh NNE 2.2 mph3.5 kmh 29.52 in999.7 mb 0.00 in0.0 mm 0.00 in0.0 mm 0.04 in1.0 mm
09:30 PM 50.2°F10.1°C 45.5°F7.5°C 84% 0.3 mph N0.5 kmh N 1.6 mph2.6 kmh 29.51 in999.3 mb 0.00 in0.0 mm 0.00 in0.0 mm 0.04 in1.0 mm
09:45 PM 49.8°F9.9°C 45.8°F7.7°C 86% 1.1 mph N1.8 kmh N 3.1 mph5.0 kmh 29.49 in998.6 mb 0.01 in0.3 mm 0.04 in1.0 mm 0.05 in1.3 mm
10:00 PM 49.5°F9.7°C 45.8°F7.7°C 87% 1.2 mph SSE1.9 kmh SSE 2.2 mph3.5 kmh 29.49 in998.6 mb 0.01 in0.3 mm 0.00 in0.0 mm 0.05 in1.3 mm
10:15 PM 49.6°F9.8°C 46.2°F7.9°C 88% 3.4 mph S5.5 kmh S 6.0 mph9.7 kmh 29.48 in998.3 mb 0.01 in0.3 mm 0.00 in0.0 mm 0.05 in1.3 mm
10:30 PM 49.8°F9.9°C 45.5°F7.5°C 85% 1.4 mph NNW2.3 kmh NNW 3.1 mph5.0 kmh 29.48 in998.3 mb 0.01 in0.3 mm 0.00 in0.0 mm 0.05 in1.3 mm
10:45 PM 49.5°F9.7°C 45.5°F7.5°C 86% 1.0 mph NW1.6 kmh NW 3.1 mph5.0 kmh 29.46 in997.6 mb 0.00 in0.0 mm 0.00 in0.0 mm 0.05 in1.3 mm
11:00 PM 49.6°F9.8°C 45.3°F7.4°C 85% 1.8 mph SSW2.9 kmh SSW 3.1 mph5.0 kmh 29.46 in997.6 mb 0.00 in0.0 mm 0.00 in0.0 mm 0.04 in1.0 mm
11:45 PM 50.5°F10.3°C 44.6°F7.0°C 80% 3.2 mph SW5.1 kmh SW 9.2 mph14.8 kmh 29.42 in996.3 mb 0.00 in0.0 mm 0.00 in0.0 mm 0.04 in1.0 mm